createdAt,value
2023-01-08T00:00:33.653Z,100250.0
2023-01-08T00:02:42.964Z,100270.0
2023-01-08T00:05:33.618Z,100250.0
2023-01-08T00:07:43.011Z,100280.0
2023-01-08T00:10:33.629Z,100250.0
2023-01-08T00:12:42.917Z,100290.0
2023-01-08T00:15:33.644Z,100250.0
2023-01-08T00:17:42.923Z,100290.0
2023-01-08T00:20:33.657Z,100250.0
2023-01-08T00:22:42.931Z,100290.0
2023-01-08T00:25:33.667Z,100230.0
2023-01-08T00:27:42.917Z,100270.0
2023-01-08T00:30:33.780Z,100220.0
2023-01-08T00:32:42.911Z,100280.0
2023-01-08T00:35:33.695Z,100230.0
2023-01-08T00:37:42.916Z,100270.0
2023-01-08T00:40:33.720Z,100220.0
2023-01-08T00:42:42.920Z,100260.0
2023-01-08T00:45:33.800Z,100220.0
2023-01-08T00:47:42.925Z,100250.0
2023-01-08T00:50:33.739Z,100200.0
2023-01-08T00:52:42.924Z,100240.0
2023-01-08T00:55:33.749Z,100210.0
2023-01-08T00:57:42.930Z,100250.0
2023-01-08T01:00:33.789Z,100190.0
2023-01-08T01:02:42.938Z,100240.0
2023-01-08T01:05:33.808Z,100190.0
2023-01-08T01:07:43.092Z,100230.0
2023-01-08T01:10:33.791Z,100190.0
2023-01-08T01:12:43.058Z,100220.0
2023-01-08T01:15:33.793Z,100180.0
2023-01-08T01:17:43.034Z,100230.0
2023-01-08T01:20:33.815Z,100180.0
2023-01-08T01:22:42.931Z,100220.0
2023-01-08T01:25:33.827Z,100180.0
2023-01-08T01:27:43.038Z,100220.0
2023-01-08T01:30:33.895Z,100170.0
2023-01-08T01:32:43.034Z,100220.0
2023-01-08T01:35:33.859Z,100180.0
2023-01-08T01:37:43.046Z,100220.0
2023-01-08T01:40:33.859Z,100170.0
2023-01-08T01:42:42.942Z,100220.0
2023-01-08T01:45:33.912Z,100160.0
2023-01-08T01:47:42.940Z,100220.0
2023-01-08T01:50:33.884Z,100180.0
2023-01-08T01:52:42.942Z,100230.0
2023-01-08T01:55:33.903Z,100180.0
2023-01-08T01:57:42.951Z,100220.0
2023-01-08T02:00:33.931Z,100180.0
2023-01-08T02:02:43.051Z,100220.0
2023-01-08T02:05:33.934Z,100180.0
2023-01-08T02:07:42.949Z,100230.0
2023-01-08T02:10:33.938Z,100190.0
2023-01-08T02:12:42.963Z,100240.0
2023-01-08T02:15:33.951Z,100200.0
2023-01-08T02:17:42.951Z,100240.0
2023-01-08T02:20:33.970Z,100190.0
2023-01-08T02:22:42.950Z,100260.0
2023-01-08T02:25:33.980Z,100200.0
2023-01-08T02:27:42.974Z,100240.0
2023-01-08T02:30:34.057Z,100190.0
2023-01-08T02:32:43.055Z,100230.0
2023-01-08T02:35:34.000Z,100190.0
2023-01-08T02:37:43.049Z,100220.0
2023-01-08T02:40:34.019Z,100170.0
2023-01-08T02:42:43.057Z,100210.0
2023-01-08T02:45:34.053Z,100160.0
2023-01-08T02:47:43.060Z,100200.0
2023-01-08T02:50:34.067Z,100150.0
2023-01-08T02:52:43.056Z,100190.0
2023-01-08T02:55:34.069Z,100130.0
2023-01-08T02:57:43.061Z,100180.0
2023-01-08T03:00:34.157Z,100140.0
2023-01-08T03:02:43.057Z,100190.0
2023-01-08T03:05:34.083Z,100160.0
2023-01-08T03:07:43.071Z,100190.0
2023-01-08T03:10:34.097Z,100150.0
2023-01-08T03:12:43.060Z,100190.0
2023-01-08T03:15:34.116Z,100140.0
2023-01-08T03:17:43.062Z,100190.0
2023-01-08T03:20:34.129Z,100150.0
2023-01-08T03:22:43.063Z,100200.0
2023-01-08T03:25:34.140Z,100150.0
2023-01-08T03:30:34.167Z,100130.0
2023-01-08T03:32:43.071Z,100190.0
2023-01-08T03:35:34.160Z,100130.0
2023-01-08T03:37:43.069Z,100180.0
2023-01-08T03:40:34.183Z,100140.0
2023-01-08T03:42:43.072Z,100180.0
2023-01-08T03:45:34.189Z,100140.0
2023-01-08T03:47:43.081Z,100190.0
2023-01-08T03:50:34.198Z,100140.0
2023-01-08T03:52:43.068Z,100170.0
2023-01-08T03:55:34.213Z,100120.0
2023-01-08T03:57:43.181Z,100170.0
2023-01-08T04:00:34.236Z,100110.0
2023-01-08T04:02:43.171Z,100160.0
2023-01-08T04:05:34.243Z,100110.0
2023-01-08T04:07:43.071Z,100150.0
2023-01-08T04:10:34.266Z,100110.0
2023-01-08T04:12:43.073Z,100160.0
2023-01-08T04:15:34.362Z,100110.0
2023-01-08T04:17:43.074Z,100150.0
2023-01-08T04:20:34.279Z,100110.0
2023-01-08T04:22:43.108Z,100150.0
2023-01-08T04:25:34.288Z,100100.0
2023-01-08T04:27:43.231Z,100140.0
2023-01-08T04:30:34.324Z,100090.0
2023-01-08T04:32:43.085Z,100130.0
2023-01-08T04:35:34.319Z,100090.0
2023-01-08T04:37:43.091Z,100130.0
2023-01-08T04:40:34.326Z,100080.0
2023-01-08T04:42:43.094Z,100120.0
2023-01-08T04:45:34.351Z,100070.0
2023-01-08T04:50:34.359Z,100070.0
2023-01-08T04:52:43.083Z,100120.0
2023-01-08T04:55:34.372Z,100070.0
2023-01-08T04:57:43.103Z,100110.0
2023-01-08T05:00:34.383Z,100050.0
2023-01-08T05:02:43.371Z,100100.0
2023-01-08T05:05:34.423Z,100050.0
2023-01-08T05:07:43.087Z,100090.0
2023-01-08T05:10:34.410Z,100060.0
2023-01-08T05:12:43.107Z,100110.0
2023-01-08T05:15:34.472Z,100070.0
2023-01-08T05:17:43.105Z,100110.0
2023-01-08T05:20:34.436Z,100060.0
2023-01-08T05:22:43.109Z,100110.0
2023-01-08T05:25:34.452Z,100070.0
2023-01-08T05:27:43.098Z,100110.0
2023-01-08T05:30:34.466Z,100070.0
2023-01-08T05:32:43.108Z,100110.0
2023-01-08T05:35:34.505Z,100070.0
2023-01-08T05:37:43.250Z,100110.0
2023-01-08T05:40:34.503Z,100060.0
2023-01-08T05:42:43.111Z,100110.0
2023-01-08T05:45:34.502Z,100060.0
2023-01-08T05:47:43.135Z,100100.0
2023-01-08T05:50:34.545Z,100060.0
2023-01-08T05:52:43.132Z,100100.0
2023-01-08T05:55:34.529Z,100040.0
2023-01-08T05:57:43.115Z,100090.0
2023-01-08T06:00:34.543Z,100040.0
2023-01-08T06:02:43.162Z,100090.0
2023-01-08T06:05:34.548Z,100040.0
2023-01-08T06:07:43.119Z,100080.0
2023-01-08T06:10:34.568Z,100040.0
2023-01-08T06:12:43.126Z,100090.0
2023-01-08T06:15:34.669Z,100050.0
2023-01-08T06:17:43.123Z,100100.0
2023-01-08T06:20:34.615Z,100060.0
2023-01-08T06:22:43.123Z,100110.0
2023-01-08T06:25:34.642Z,100070.0
2023-01-08T06:27:43.130Z,100130.0
2023-01-08T06:30:34.613Z,100080.0
2023-01-08T06:32:43.236Z,100130.0
2023-01-08T06:35:34.648Z,100080.0
2023-01-08T06:37:43.136Z,100120.0
2023-01-08T06:40:34.637Z,100080.0
2023-01-08T06:42:43.123Z,100130.0
2023-01-08T06:45:34.664Z,100090.0
2023-01-08T06:47:43.149Z,100140.0
2023-01-08T06:50:34.688Z,100100.0
2023-01-08T06:52:43.132Z,100140.0
2023-01-08T06:55:34.716Z,100090.0
2023-01-08T06:57:43.130Z,100140.0
2023-01-08T07:00:34.694Z,100090.0
2023-01-08T07:02:43.334Z,100140.0
2023-01-08T07:05:34.713Z,100090.0
2023-01-08T07:07:43.241Z,100150.0
2023-01-08T07:10:34.729Z,100100.0
2023-01-08T07:12:43.132Z,100150.0
2023-01-08T07:15:34.732Z,100100.0
2023-01-08T07:17:43.147Z,100140.0
2023-01-08T07:20:34.888Z,100100.0
2023-01-08T07:22:43.163Z,100150.0
2023-01-08T07:25:34.769Z,100090.0
2023-01-08T07:27:43.241Z,100150.0
2023-01-08T07:30:34.872Z,100090.0
2023-01-08T07:32:43.146Z,100150.0
2023-01-08T07:37:43.146Z,100140.0
2023-01-08T07:40:34.804Z,100090.0
2023-01-08T07:42:43.135Z,100150.0
2023-01-08T07:45:34.817Z,100090.0
2023-01-08T07:47:43.140Z,100140.0
2023-01-08T07:50:34.833Z,100090.0
2023-01-08T07:52:43.146Z,100150.0
2023-01-08T07:55:34.842Z,100100.0
2023-01-08T07:57:43.161Z,100150.0
2023-01-08T08:00:34.862Z,100100.0
2023-01-08T08:02:43.228Z,100160.0
2023-01-08T08:05:34.881Z,100100.0
2023-01-08T08:07:43.140Z,100160.0
2023-01-08T08:10:34.877Z,100090.0
2023-01-08T08:12:43.145Z,100150.0
2023-01-08T08:15:34.899Z,100090.0
2023-01-08T08:17:43.152Z,100140.0
2023-01-08T08:20:34.926Z,100090.0
2023-01-08T08:22:43.144Z,100130.0
2023-01-08T08:25:34.925Z,100080.0
2023-01-08T08:27:43.148Z,100130.0
2023-01-08T08:30:34.933Z,100060.0
2023-01-08T08:32:43.174Z,100130.0
2023-01-08T08:35:34.958Z,100070.0
2023-01-08T08:37:43.159Z,100110.0
2023-01-08T08:40:34.962Z,100060.0
2023-01-08T08:42:43.193Z,100110.0
2023-01-08T08:45:34.976Z,100050.0
2023-01-08T08:47:43.212Z,100100.0
2023-01-08T08:50:34.990Z,100060.0
2023-01-08T08:52:43.159Z,100110.0
2023-01-08T08:55:35.044Z,100060.0
2023-01-08T08:57:43.169Z,100110.0
2023-01-08T09:00:35.021Z,100060.0
2023-01-08T09:02:43.338Z,100100.0
2023-01-08T09:05:35.027Z,100040.0
2023-01-08T09:07:43.161Z,100080.0
2023-01-08T09:10:35.048Z,100030.0
2023-01-08T09:12:43.164Z,100080.0
2023-01-08T09:15:35.076Z,100030.0
2023-01-08T09:17:43.162Z,100090.0
2023-01-08T09:20:35.065Z,100040.0
2023-01-08T09:22:43.169Z,100100.0
2023-01-08T09:25:35.086Z,100050.0
2023-01-08T09:27:43.187Z,100100.0
2023-01-08T09:30:35.136Z,100050.0
2023-01-08T09:32:43.175Z,100100.0
2023-01-08T09:35:35.121Z,100040.0
2023-01-08T09:37:43.304Z,100090.0
2023-01-08T09:40:35.144Z,100040.0
2023-01-08T09:42:43.170Z,100090.0
2023-01-08T09:45:35.144Z,100040.0
2023-01-08T09:47:43.174Z,100080.0
2023-01-08T09:50:35.144Z,100040.0
2023-01-08T09:52:43.873Z,100070.0
2023-01-08T09:55:35.161Z,100030.0
2023-01-08T09:57:43.489Z,100080.0
2023-01-08T10:00:35.302Z,100030.0
2023-01-08T10:02:43.235Z,100080.0
2023-01-08T10:05:35.180Z,100020.0
2023-01-08T10:07:43.180Z,100070.0
2023-01-08T10:10:35.191Z,100010.0
2023-01-08T10:12:43.184Z,100060.0
2023-01-08T10:15:35.207Z,100020.0
2023-01-08T10:17:43.181Z,100060.0
2023-01-08T10:20:35.225Z,100010.0
2023-01-08T10:22:43.202Z,100050.0
2023-01-08T10:25:35.238Z,99990.0
2023-01-08T10:27:43.194Z,100050.0
2023-01-08T10:30:35.250Z,100000.0
2023-01-08T10:32:43.217Z,100050.0
2023-01-08T10:35:35.270Z,100000.0
2023-01-08T10:37:43.195Z,100040.0
2023-01-08T10:40:35.279Z,99990.0
2023-01-08T10:42:43.200Z,100030.0
2023-01-08T10:45:35.337Z,99970.0
2023-01-08T10:47:43.197Z,100020.0
2023-01-08T10:50:35.295Z,99970.0
2023-01-08T10:52:43.201Z,100010.0
2023-01-08T10:55:35.314Z,99970.0
2023-01-08T10:57:43.207Z,100010.0
2023-01-08T11:00:35.403Z,99950.0
2023-01-08T11:02:43.264Z,100000.0
2023-01-08T11:05:35.335Z,99940.0
2023-01-08T11:07:43.203Z,99990.0
2023-01-08T11:10:35.348Z,99940.0
2023-01-08T11:12:43.226Z,99980.0
2023-01-08T11:15:35.365Z,99930.0
2023-01-08T11:17:43.212Z,99960.0
2023-01-08T11:20:35.377Z,99920.0
2023-01-08T11:22:43.203Z,99970.0
2023-01-08T11:25:35.391Z,99910.0
2023-01-08T11:27:43.234Z,99960.0
2023-01-08T11:30:35.415Z,99910.0
2023-01-08T11:32:43.221Z,99950.0
2023-01-08T11:35:35.415Z,99900.0
2023-01-08T11:37:43.216Z,99940.0
2023-01-08T11:40:35.435Z,99900.0
2023-01-08T11:42:43.123Z,99930.0
2023-01-08T11:45:35.457Z,99890.0
2023-01-08T11:47:43.227Z,99920.0
2023-01-08T11:50:35.462Z,99870.0
2023-01-08T11:52:43.227Z,99920.0
2023-01-08T11:55:35.471Z,99880.0
2023-01-08T11:57:43.228Z,99910.0
2023-01-08T12:00:35.481Z,99860.0
2023-01-08T12:02:43.132Z,99910.0
2023-01-08T12:05:35.513Z,99850.0
2023-01-08T12:07:43.132Z,99910.0
2023-01-08T12:10:35.550Z,99860.0
2023-01-08T12:12:43.135Z,99910.0
2023-01-08T12:15:35.522Z,99860.0
2023-01-08T12:17:43.248Z,99900.0
2023-01-08T12:20:35.554Z,99860.0
2023-01-08T12:22:43.146Z,99900.0
2023-01-08T12:25:35.551Z,99860.0
2023-01-08T12:27:56.331Z,99900.0
2023-01-08T12:30:35.562Z,99850.0
2023-01-08T12:32:43.249Z,99900.0
2023-01-08T12:35:35.585Z,99830.0
2023-01-08T12:37:43.243Z,99890.0
2023-01-08T12:40:35.586Z,99840.0
2023-01-08T12:42:47.193Z,99870.0
2023-01-08T12:45:35.630Z,99830.0
2023-01-08T12:47:43.257Z,99870.0
2023-01-08T12:50:35.619Z,99840.0
2023-01-08T12:52:43.165Z,99880.0
2023-01-08T12:55:35.639Z,99830.0
2023-01-08T12:57:43.141Z,99870.0
2023-01-08T13:00:35.641Z,99830.0
2023-01-08T13:02:43.332Z,99860.0
2023-01-08T13:05:35.664Z,99810.0
2023-01-08T13:07:43.251Z,99860.0
2023-01-08T13:10:35.669Z,99810.0
2023-01-08T13:12:43.250Z,99860.0
2023-01-08T13:15:35.677Z,99800.0
2023-01-08T13:17:43.256Z,99850.0
2023-01-08T13:20:35.694Z,99800.0
2023-01-08T13:22:43.260Z,99840.0
2023-01-08T13:25:35.702Z,99790.0
2023-01-08T13:27:43.260Z,99840.0
2023-01-08T13:30:35.732Z,99790.0
2023-01-08T13:32:43.160Z,99830.0
2023-01-08T13:35:35.759Z,99780.0
2023-01-08T13:37:43.164Z,99820.0
2023-01-08T13:40:35.740Z,99770.0
2023-01-08T13:42:43.272Z,99810.0
2023-01-08T13:45:35.870Z,99760.0
2023-01-08T13:47:43.163Z,99800.0
2023-01-08T13:50:35.765Z,99750.0
2023-01-08T13:52:43.269Z,99790.0
2023-01-08T13:55:35.800Z,99750.0
2023-01-08T13:57:43.176Z,99800.0
2023-01-08T14:00:35.830Z,99750.0
2023-01-08T14:02:43.227Z,99800.0
2023-01-08T14:05:35.811Z,99750.0
2023-01-08T14:07:43.176Z,99800.0
2023-01-08T14:10:35.824Z,99760.0
2023-01-08T14:12:43.171Z,99800.0
2023-01-08T14:15:35.855Z,99740.0
2023-01-08T14:17:43.180Z,99790.0
2023-01-08T14:20:35.846Z,99750.0
2023-01-08T14:22:43.284Z,99790.0
2023-01-08T14:25:35.860Z,99730.0
2023-01-08T14:27:43.290Z,99780.0
2023-01-08T14:30:35.882Z,99730.0
2023-01-08T14:32:43.290Z,99770.0
2023-01-08T14:35:35.902Z,99710.0
2023-01-08T14:37:43.177Z,99760.0
2023-01-08T14:40:35.918Z,99710.0
2023-01-08T14:42:43.195Z,99750.0
2023-01-08T14:45:35.971Z,99700.0
2023-01-08T14:47:43.187Z,99740.0
2023-01-08T14:50:35.974Z,99700.0
2023-01-08T14:52:43.195Z,99750.0
2023-01-08T14:55:35.940Z,99700.0
2023-01-08T14:57:43.189Z,99740.0
2023-01-08T15:00:35.955Z,99690.0
2023-01-08T15:02:43.227Z,99720.0
2023-01-08T15:05:35.976Z,99680.0
2023-01-08T15:07:43.195Z,99730.0
2023-01-08T15:10:36.004Z,99680.0
2023-01-08T15:12:43.297Z,99720.0
2023-01-08T15:15:35.993Z,99680.0
2023-01-08T15:17:43.291Z,99720.0
2023-01-08T15:20:36.022Z,99660.0
2023-01-08T15:22:43.301Z,99710.0
2023-01-08T15:25:36.024Z,99660.0
2023-01-08T15:27:43.299Z,99710.0
2023-01-08T15:30:36.053Z,99650.0
2023-01-08T15:32:43.296Z,99700.0
2023-01-08T15:35:36.074Z,99660.0
2023-01-08T15:37:43.326Z,99690.0
2023-01-08T15:40:36.061Z,99650.0
2023-01-08T15:42:43.296Z,99700.0
2023-01-08T15:45:36.086Z,99650.0
2023-01-08T15:47:43.312Z,99700.0
2023-01-08T15:50:36.084Z,99660.0
2023-01-08T15:52:43.310Z,99700.0
2023-01-08T15:55:36.100Z,99650.0
2023-01-08T15:57:43.328Z,99700.0
2023-01-08T16:00:36.109Z,99650.0
2023-01-08T16:02:46.394Z,99700.0
2023-01-08T16:05:36.128Z,99650.0
2023-01-08T16:07:43.311Z,99700.0
2023-01-08T16:10:36.137Z,99660.0
2023-01-08T16:12:43.309Z,99700.0
2023-01-08T16:15:36.145Z,99650.0
2023-01-08T16:17:43.321Z,99700.0
2023-01-08T16:20:36.167Z,99650.0
2023-01-08T16:22:43.303Z,99700.0
2023-01-08T16:25:36.178Z,99640.0
2023-01-08T16:27:43.310Z,99700.0
2023-01-08T16:30:36.186Z,99650.0
2023-01-08T16:32:43.327Z,99700.0
2023-01-08T16:35:36.203Z,99640.0
2023-01-08T16:37:43.311Z,99690.0
2023-01-08T16:40:36.222Z,99640.0
2023-01-08T16:42:43.316Z,99700.0
2023-01-08T16:45:36.357Z,99650.0
2023-01-08T16:47:43.319Z,99700.0
2023-01-08T16:50:36.239Z,99640.0
2023-01-08T16:52:43.345Z,99690.0
2023-01-08T16:55:36.254Z,99640.0
2023-01-08T16:57:43.318Z,99690.0
2023-01-08T17:00:36.364Z,99630.0
2023-01-08T17:02:43.319Z,99670.0
2023-01-08T17:05:36.290Z,99630.0
2023-01-08T17:07:43.322Z,99680.0
2023-01-08T17:10:36.288Z,99620.0
2023-01-08T17:12:43.328Z,99670.0
2023-01-08T17:15:36.310Z,99620.0
2023-01-08T17:17:43.327Z,99660.0
2023-01-08T17:20:36.319Z,99610.0
2023-01-08T17:22:43.404Z,99650.0
2023-01-08T17:25:36.335Z,99590.0
2023-01-08T17:27:43.329Z,99640.0
2023-01-08T17:30:36.361Z,99590.0
2023-01-08T17:32:43.381Z,99630.0
2023-01-08T17:35:36.360Z,99580.0
2023-01-08T17:37:43.329Z,99630.0
2023-01-08T17:40:36.634Z,99570.0
2023-01-08T17:42:43.338Z,99620.0
2023-01-08T17:45:36.446Z,99570.0
2023-01-08T17:47:43.350Z,99610.0
2023-01-08T17:50:36.402Z,99550.0
2023-01-08T17:52:43.354Z,99610.0
2023-01-08T17:55:36.424Z,99550.0
2023-01-08T17:57:43.341Z,99600.0
2023-01-08T18:00:36.422Z,99550.0
2023-01-08T18:02:43.449Z,99590.0
2023-01-08T18:05:36.438Z,99550.0
2023-01-08T18:07:43.336Z,99590.0
2023-01-08T18:10:36.449Z,99530.0
2023-01-08T18:12:43.360Z,99580.0
2023-01-08T18:15:36.464Z,99530.0
2023-01-08T18:17:43.400Z,99580.0
2023-01-08T18:20:36.476Z,99530.0
2023-01-08T18:22:43.346Z,99580.0
2023-01-08T18:25:36.493Z,99530.0
2023-01-08T18:27:43.348Z,99570.0
2023-01-08T18:30:36.501Z,99520.0
2023-01-08T18:32:43.349Z,99570.0
2023-01-08T18:35:36.517Z,99520.0
2023-01-08T18:37:43.348Z,99570.0
2023-01-08T18:40:36.525Z,99520.0
2023-01-08T18:42:43.351Z,99560.0
2023-01-08T18:45:36.580Z,99510.0
2023-01-08T18:47:43.356Z,99550.0
2023-01-08T18:50:36.559Z,99490.0
2023-01-08T18:52:43.357Z,99540.0
2023-01-08T18:55:36.590Z,99490.0
2023-01-08T18:57:43.362Z,99540.0
2023-01-08T19:00:38.094Z,99490.0
2023-01-08T19:02:43.537Z,99530.0
2023-01-08T19:05:36.596Z,99490.0
2023-01-08T19:07:43.357Z,99530.0
2023-01-08T19:10:36.609Z,99470.0
2023-01-08T19:12:43.360Z,99520.0
2023-01-08T19:15:36.625Z,99470.0
2023-01-08T19:17:43.360Z,99510.0
2023-01-08T19:20:36.635Z,99450.0
2023-01-08T19:22:43.361Z,99500.0
2023-01-08T19:25:36.647Z,99450.0
2023-01-08T19:27:43.367Z,99500.0
2023-01-08T19:30:36.687Z,99440.0
2023-01-08T19:32:43.361Z,99490.0
2023-01-08T19:35:36.683Z,99440.0
2023-01-08T19:37:43.358Z,99480.0
2023-01-08T19:40:36.621Z,99430.0
2023-01-08T19:42:43.368Z,99480.0
2023-01-08T19:45:36.683Z,99410.0
2023-01-08T19:47:43.375Z,99460.0
2023-01-08T19:50:36.656Z,99400.0
2023-01-08T19:52:43.376Z,99460.0
2023-01-08T19:55:36.664Z,99420.0
2023-01-08T19:57:43.369Z,99460.0
2023-01-08T20:00:36.716Z,99410.0
2023-01-08T20:02:43.392Z,99450.0
2023-01-08T20:05:36.689Z,99400.0
2023-01-08T20:07:43.375Z,99440.0
2023-01-08T20:10:36.700Z,99380.0
2023-01-08T20:12:43.385Z,99430.0
2023-01-08T20:15:36.724Z,99380.0
2023-01-08T20:17:43.375Z,99430.0
2023-01-08T20:20:36.737Z,99380.0
2023-01-08T20:22:43.378Z,99420.0
2023-01-08T20:25:36.750Z,99370.0
2023-01-08T20:27:43.380Z,99420.0
2023-01-08T20:30:36.772Z,99370.0
2023-01-08T20:32:43.391Z,99410.0
2023-01-08T20:35:36.766Z,99360.0
2023-01-08T20:37:43.999Z,99400.0
2023-01-08T20:40:36.793Z,99350.0
2023-01-08T20:42:43.389Z,99390.0
2023-01-08T20:45:36.922Z,99350.0
2023-01-08T20:47:43.389Z,99380.0
2023-01-08T20:50:36.820Z,99350.0
2023-01-08T20:52:43.385Z,99380.0
2023-01-08T20:55:36.817Z,99330.0
2023-01-08T20:57:43.387Z,99370.0
2023-01-08T21:00:36.891Z,99330.0
2023-01-08T21:02:43.397Z,99380.0
2023-01-08T21:05:36.844Z,99340.0
2023-01-08T21:07:43.392Z,99370.0
2023-01-08T21:10:36.877Z,99330.0
2023-01-08T21:12:43.397Z,99360.0
2023-01-08T21:15:36.871Z,99310.0
2023-01-08T21:17:43.397Z,99350.0
2023-01-08T21:20:36.883Z,99300.0
2023-01-08T21:22:43.434Z,99350.0
2023-01-08T21:25:36.897Z,99300.0
2023-01-08T21:27:43.404Z,99340.0
2023-01-08T21:30:36.911Z,99290.0
2023-01-08T21:32:43.399Z,99330.0
2023-01-08T21:35:36.926Z,99280.0
2023-01-08T21:37:43.508Z,99320.0
2023-01-08T21:40:36.939Z,99280.0
2023-01-08T21:42:43.515Z,99320.0
2023-01-08T21:45:37.033Z,99260.0
2023-01-08T21:47:43.421Z,99310.0
2023-01-08T21:50:36.967Z,99260.0
2023-01-08T21:52:43.412Z,99300.0
2023-01-08T21:55:36.978Z,99260.0
2023-01-08T21:57:43.408Z,99300.0
2023-01-08T22:00:37.051Z,99240.0
2023-01-08T22:02:43.416Z,99290.0
2023-01-08T22:05:37.002Z,99240.0
2023-01-08T22:07:43.412Z,99290.0
2023-01-08T22:10:37.021Z,99240.0
2023-01-08T22:12:43.415Z,99270.0
2023-01-08T22:15:37.041Z,99230.0
2023-01-08T22:17:43.413Z,99270.0
2023-01-08T22:20:37.046Z,99210.0
2023-01-08T22:22:43.420Z,99260.0
2023-01-08T22:25:37.062Z,99200.0
2023-01-08T22:27:43.416Z,99250.0
2023-01-08T22:30:37.071Z,99210.0
2023-01-08T22:32:43.417Z,99260.0
2023-01-08T22:35:37.082Z,99210.0
2023-01-08T22:37:43.424Z,99270.0
2023-01-08T22:40:37.096Z,99220.0
2023-01-08T22:42:43.433Z,99270.0
2023-01-08T22:45:37.212Z,99230.0
2023-01-08T22:47:43.436Z,99270.0
2023-01-08T22:50:37.143Z,99220.0
2023-01-08T22:52:43.433Z,99270.0
2023-01-08T22:55:37.135Z,99220.0
2023-01-08T22:57:43.435Z,99270.0
2023-01-08T23:00:37.150Z,99230.0
2023-01-08T23:02:43.639Z,99280.0
2023-01-08T23:05:37.164Z,99220.0
2023-01-08T23:07:43.436Z,99270.0
2023-01-08T23:10:37.176Z,99230.0
2023-01-08T23:12:43.433Z,99270.0
2023-01-08T23:15:37.189Z,99230.0
2023-01-08T23:17:52.242Z,99280.0
2023-01-08T23:20:37.208Z,99230.0
2023-01-08T23:25:37.211Z,99250.0
2023-01-08T23:27:43.440Z,99300.0
2023-01-08T23:30:37.226Z,99270.0
2023-01-08T23:32:43.438Z,99310.0
2023-01-08T23:35:37.242Z,99270.0
2023-01-08T23:37:43.451Z,99310.0
2023-01-08T23:40:37.259Z,99260.0
2023-01-08T23:42:43.438Z,99310.0
2023-01-08T23:45:37.283Z,99270.0
2023-01-08T23:47:43.440Z,99320.0
2023-01-08T23:50:37.277Z,99280.0
2023-01-08T23:52:43.445Z,99320.0
2023-01-08T23:55:37.288Z,99270.0
2023-01-08T23:57:43.446Z,99320.0
